Terminal Aerodrome Forecast
Issued by NWS

Home | Current Version | Previous Version | Text Only | Print | Product List | Glossary On
Versions: 1 2 3 4 5 6 7 8 9 10 11 12 13 14 15 16 17 18 19 20 21 22 23 24 25 26 27 28 29 30 31 32 33 34 35 36 37
000
FTUS44 KHGX 260528
TAFIAH
TAF
KIAH 260528Z 2606/2712 16007KT P6SM SCT007 BKN012 OVC025
     FM261500 15009KT P6SM SCT015 BKN150
     FM262000 15012KT P6SM VCSH SCT030 OVC150
     FM270600 15011KT P6SM BKN015=

USA.gov is the U.S. government's official web portal to all federal, state and local government web resources and services.